sensor_id;sensor_type;location;lat;lon;timestamp;pressure;altitude;pressure_sealevel;temperature;humidity
57442;BME280;43284;47.042;15.498;2023-04-08T00:02:19;97085.25;;;4.72;63.50
57442;BME280;43284;47.042;15.498;2023-04-08T00:04:45;97091.25;;;4.74;64.84
57442;BME280;43284;47.042;15.498;2023-04-08T00:07:10;97091.19;;;4.76;65.70
57442;BME280;43284;47.042;15.498;2023-04-08T00:09:36;97094.63;;;4.77;65.55
57442;BME280;43284;47.042;15.498;2023-04-08T00:12:02;97086.06;;;4.74;66.17
57442;BME280;43284;47.042;15.498;2023-04-08T00:14:28;97090.47;;;4.71;65.10
57442;BME280;43284;47.042;15.498;2023-04-08T00:16:54;97081.06;;;4.68;66.25
57442;BME280;43284;47.042;15.498;2023-04-08T00:19:19;97081.84;;;4.70;65.65
57442;BME280;43284;47.042;15.498;2023-04-08T00:21:45;97083.56;;;4.70;65.90
57442;BME280;43284;47.042;15.498;2023-04-08T00:24:11;97083.56;;;4.70;65.33
57442;BME280;43284;47.042;15.498;2023-04-08T00:26:37;97083.53;;;4.71;65.00
57442;BME280;43284;47.042;15.498;2023-04-08T00:29:02;97077.44;;;4.74;64.61
57442;BME280;43284;47.042;15.498;2023-04-08T00:31:28;97074.78;;;4.77;64.43
57442;BME280;43284;47.042;15.498;2023-04-08T00:33:53;97078.53;;;4.65;64.38
57442;BME280;43284;47.042;15.498;2023-04-08T00:36:19;97073.34;;;4.65;65.21
57442;BME280;43284;47.042;15.498;2023-04-08T00:38:44;97078.53;;;4.65;64.56
57442;BME280;43284;47.042;15.498;2023-04-08T00:41:10;97077.94;;;4.56;64.61
57442;BME280;43284;47.042;15.498;2023-04-08T00:43:36;97070.19;;;4.54;64.83
57442;BME280;43284;47.042;15.498;2023-04-08T00:46:02;97075.25;;;4.59;64.78
57442;BME280;43284;47.042;15.498;2023-04-08T00:48:28;97079.56;;;4.60;64.92
57442;BME280;43284;47.042;15.498;2023-04-08T00:50:54;97078.66;;;4.61;65.08
57442;BME280;43284;47.042;15.498;2023-04-08T00:53:19;97080.38;;;4.62;65.37
57442;BME280;43284;47.042;15.498;2023-04-08T00:55:45;97080.25;;;4.66;65.51
57442;BME280;43284;47.042;15.498;2023-04-08T00:58:11;97079.41;;;4.66;66.00
57442;BME280;43284;47.042;15.498;2023-04-08T01:00:41;97082.97;;;4.60;65.65
57442;BME280;43284;47.042;15.498;2023-04-08T01:03:15;97080.63;;;4.51;65.77
57442;BME280;43284;47.042;15.498;2023-04-08T01:06:00;97075.41;;;4.52;66.19
57442;BME280;43284;47.042;15.498;2023-04-08T01:08:29;97078.88;;;4.53;65.52
57442;BME280;43284;47.042;15.498;2023-04-08T01:11:00;97071.94;;;4.53;65.69
57442;BME280;43284;47.042;15.498;2023-04-08T01:13:29;97066.66;;;4.57;66.67
57442;BME280;43284;47.042;15.498;2023-04-08T01:15:55;97075.34;;;4.56;66.44
57442;BME280;43284;47.042;15.498;2023-04-08T01:18:22;97067.56;;;4.56;66.73
57442;BME280;43284;47.042;15.498;2023-04-08T01:20:49;97066.84;;;4.50;67.11
57442;BME280;43284;47.042;15.498;2023-04-08T01:26:24;97071.09;;;4.53;67.28
57442;BME280;43284;47.042;15.498;2023-04-08T01:28:54;97067.84;;;4.45;67.43
57442;BME280;43284;47.042;15.498;2023-04-08T01:31:21;97066.09;;;4.45;68.53
57442;BME280;43284;47.042;15.498;2023-04-08T01:33:50;97065.97;;;4.50;66.27
57442;BME280;43284;47.042;15.498;2023-04-08T01:36:16;97065.81;;;4.56;66.47
57442;BME280;43284;47.042;15.498;2023-04-08T01:38:43;97060.69;;;4.54;66.54
57442;BME280;43284;47.042;15.498;2023-04-08T01:41:10;97058.91;;;4.57;67.07
57442;BME280;43284;47.042;15.498;2023-04-08T01:43:38;97063.19;;;4.59;66.58
57442;BME280;43284;47.042;15.498;2023-04-08T01:46:06;97064.75;;;4.65;66.94
57442;BME280;43284;47.042;15.498;2023-04-08T01:48:33;97063.94;;;4.63;66.97
57442;BME280;43284;47.042;15.498;2023-04-08T01:51:00;97064.03;;;4.60;67.64
57442;BME280;43284;47.042;15.498;2023-04-08T01:53:26;97069.09;;;4.63;66.82
57442;BME280;43284;47.042;15.498;2023-04-08T01:55:56;97060.63;;;4.58;67.33
57442;BME280;43284;47.042;15.498;2023-04-08T01:58:23;97062.41;;;4.56;67.65
57442;BME280;43284;47.042;15.498;2023-04-08T02:00:51;97059.94;;;4.51;67.62
57442;BME280;43284;47.042;15.498;2023-04-08T02:03:19;97060.75;;;4.53;69.03
57442;BME280;43284;47.042;15.498;2023-04-08T02:05:46;97059.78;;;4.57;67.70
57442;BME280;43284;47.042;15.498;2023-04-08T02:08:12;97064.88;;;4.60;68.68
57442;BME280;43284;47.042;15.498;2023-04-08T02:10:38;97062.25;;;4.62;67.96
57442;BME280;43284;47.042;15.498;2023-04-08T02:13:03;97067.34;;;4.63;68.51
57442;BME280;43284;47.042;15.498;2023-04-08T02:15:33;97067.34;;;4.63;68.56
57442;BME280;43284;47.042;15.498;2023-04-08T02:18:09;97072.50;;;4.65;68.09
57442;BME280;43284;47.042;15.498;2023-04-08T02:20:43;97071.56;;;4.67;68.07
57442;BME280;43284;47.042;15.498;2023-04-08T02:23:18;97071.56;;;4.67;67.81
57442;BME280;43284;47.042;15.498;2023-04-08T02:25:46;97069.78;;;4.69;67.50
57442;BME280;43284;47.042;15.498;2023-04-08T02:28:12;97069.81;;;4.68;67.88
57442;BME280;43284;47.042;15.498;2023-04-08T02:30:41;97073.22;;;4.70;67.87
57442;BME280;43284;47.042;15.498;2023-04-08T02:33:08;97069.75;;;4.71;67.28
57442;BME280;43284;47.042;15.498;2023-04-08T02:35:35;97074.22;;;4.66;67.80
57442;BME280;43284;47.042;15.498;2023-04-08T02:38:03;97068.25;;;4.62;68.54
57442;BME280;43284;47.042;15.498;2023-04-08T02:40:30;97071.69;;;4.63;69.38
57442;BME280;43284;47.042;15.498;2023-04-08T02:42:57;97069.06;;;4.64;68.80
57442;BME280;43284;47.042;15.498;2023-04-08T02:45:30;97066.47;;;4.64;69.51
57442;BME280;43284;47.042;15.498;2023-04-08T02:47:56;97069.91;;;4.65;69.05
57442;BME280;43284;47.042;15.498;2023-04-08T02:50:23;97063.09;;;4.62;68.99
57442;BME280;43284;47.042;15.498;2023-04-08T02:52:48;97061.56;;;4.55;70.23
57442;BME280;43284;47.042;15.498;2023-04-08T02:55:14;97059.81;;;4.56;69.62
57442;BME280;43284;47.042;15.498;2023-04-08T02:57:41;97060.59;;;4.59;68.81
57442;BME280;43284;47.042;15.498;2023-04-08T03:00:07;97067.31;;;4.65;68.58
57442;BME280;43284;47.042;15.498;2023-04-08T03:02:33;97067.31;;;4.65;69.14
57442;BME280;43284;47.042;15.498;2023-04-08T03:04:58;97063.88;;;4.66;69.45
57442;BME280;43284;47.042;15.498;2023-04-08T03:07:24;97063.91;;;4.64;70.77
57442;BME280;43284;47.042;15.498;2023-04-08T03:09:50;97065.63;;;4.64;71.10
57442;BME280;43284;47.042;15.498;2023-04-08T03:12:15;97066.47;;;4.64;70.62
57442;BME280;43284;47.042;15.498;2023-04-08T03:14:41;97068.13;;;4.67;71.10
57442;BME280;43284;47.042;15.498;2023-04-08T03:17:07;97069.88;;;4.66;71.83
57442;BME280;43284;47.042;15.498;2023-04-08T03:19:32;97070.72;;;4.67;72.36
57442;BME280;43284;47.042;15.498;2023-04-08T03:21:58;97066.34;;;4.69;73.55
57442;BME280;43284;47.042;15.498;2023-04-08T03:24:23;97066.31;;;4.70;73.55
57442;BME280;43284;47.042;15.498;2023-04-08T03:26:49;97067.28;;;4.66;71.92
57442;BME280;43284;47.042;15.498;2023-04-08T03:29:14;97063.94;;;4.61;72.75
57442;BME280;43284;47.042;15.498;2023-04-08T03:31:40;97054.59;;;4.57;72.55
57442;BME280;43284;47.042;15.498;2023-04-08T03:34:05;97064.94;;;4.57;71.92
57442;BME280;43284;47.042;15.498;2023-04-08T03:36:31;97065.84;;;4.54;71.29
57442;BME280;43284;47.042;15.498;2023-04-08T03:38:56;97067.59;;;4.54;71.47
57442;BME280;43284;47.042;15.498;2023-04-08T03:41:22;97068.41;;;4.56;72.65
57442;BME280;43284;47.042;15.498;2023-04-08T03:43:47;97083.56;;;4.37;75.65
57442;BME280;43284;47.042;15.498;2023-04-08T03:46:13;97084.59;;;4.31;76.80
57442;BME280;43284;47.042;15.498;2023-04-08T03:48:38;97086.16;;;4.37;76.26
57442;BME280;43284;47.042;15.498;2023-04-08T03:51:04;97081.91;;;4.34;75.65
57442;BME280;43284;47.042;15.498;2023-04-08T03:53:29;97087.06;;;4.34;75.41
57442;BME280;43284;47.042;15.498;2023-04-08T03:55:56;97089.66;;;4.34;76.44
57442;BME280;43284;47.042;15.498;2023-04-08T03:58:21;97087.88;;;4.37;76.85
57442;BME280;43284;47.042;15.498;2023-04-08T04:00:47;97095.75;;;4.33;76.73
57442;BME280;43284;47.042;15.498;2023-04-08T04:03:12;97095.78;;;4.32;76.95
57442;BME280;43284;47.042;15.498;2023-04-08T04:05:39;97094.16;;;4.28;76.39
57442;BME280;43284;47.042;15.498;2023-04-08T04:08:05;97095.75;;;4.33;78.03
57442;BME280;43284;47.042;15.498;2023-04-08T04:10:31;97110.72;;;4.21;79.61
57442;BME280;43284;47.042;15.498;2023-04-08T04:12:56;97116.81;;;4.18;81.79
57442;BME280;43284;47.042;15.498;2023-04-08T04:15:22;97120.34;;;4.14;82.15
57442;BME280;43284;47.042;15.498;2023-04-08T04:17:48;97121.28;;;4.11;82.85
57442;BME280;43284;47.042;15.498;2023-04-08T04:20:15;97111.91;;;4.06;83.25
57442;BME280;43284;47.042;15.498;2023-04-08T04:22:41;97117.09;;;4.06;83.30
57442;BME280;43284;47.042;15.498;2023-04-08T04:25:07;97127.47;;;4.04;83.61
57442;BME280;43284;47.042;15.498;2023-04-08T04:27:33;97124.03;;;4.04;83.40
57442;BME280;43284;47.042;15.498;2023-04-08T04:30:00;97133.66;;;3.99;84.85
57442;BME280;43284;47.042;15.498;2023-04-08T04:32:25;97134.59;;;3.95;85.74
57442;BME280;43284;47.042;15.498;2023-04-08T04:34:50;97133.69;;;3.96;86.83
57442;BME280;43284;47.042;15.498;2023-04-08T04:37:16;97137.16;;;3.96;87.58
57442;BME280;43284;47.042;15.498;2023-04-08T04:39:42;97131.13;;;3.96;87.25
57442;BME280;43284;47.042;15.498;2023-04-08T04:42:08;97137.28;;;3.91;87.46
57442;BME280;43284;47.042;15.498;2023-04-08T04:44:33;97138.97;;;3.91;87.58
57442;BME280;43284;47.042;15.498;2023-04-08T04:46:59;97149.31;;;3.91;88.18
57442;BME280;43284;47.042;15.498;2023-04-08T04:49:24;97151.91;;;3.91;88.38
57442;BME280;43284;47.042;15.498;2023-04-08T04:51:50;97154.56;;;3.89;88.28
57442;BME280;43284;47.042;15.498;2023-04-08T04:54:15;97151.03;;;3.92;87.76
57442;BME280;43284;47.042;15.498;2023-04-08T04:56:41;97156.19;;;3.94;88.25
57442;BME280;43284;47.042;15.498;2023-04-08T04:59:06;97151.81;;;3.96;88.37
57442;BME280;43284;47.042;15.498;2023-04-08T05:01:33;97155.19;;;3.99;88.62
57442;BME280;43284;47.042;15.498;2023-04-08T05:03:58;97151.66;;;4.02;88.58
57442;BME280;43284;47.042;15.498;2023-04-08T05:06:24;97158.56;;;4.03;89.03
57442;BME280;43284;47.042;15.498;2023-04-08T05:08:50;97165.41;;;4.04;89.01
57442;BME280;43284;47.042;15.498;2023-04-08T05:11:16;97162.69;;;4.10;90.03
57442;BME280;43284;47.042;15.498;2023-04-08T05:13:43;97172.25;;;4.06;89.92
57442;BME280;43284;47.042;15.498;2023-04-08T05:16:08;97170.72;;;3.98;89.26
57442;BME280;43284;47.042;15.498;2023-04-08T05:18:34;97174.22;;;3.95;90.37
57442;BME280;43284;47.042;15.498;2023-04-08T05:21:01;97182.00;;;3.95;90.26
57442;BME280;43284;47.042;15.498;2023-04-08T05:23:26;97175.00;;;4.00;90.87
57442;BME280;43284;47.042;15.498;2023-04-08T05:25:52;97181.06;;;3.98;89.71
57442;BME280;43284;47.042;15.498;2023-04-08T05:28:17;97180.50;;;3.85;88.54
57442;BME280;43284;47.042;15.498;2023-04-08T05:30:48;97181.38;;;3.84;88.98
57442;BME280;43284;47.042;15.498;2023-04-08T05:33:13;97182.22;;;3.84;88.69
57442;BME280;43284;47.042;15.498;2023-04-08T05:35:39;97178.59;;;3.93;89.71
57442;BME280;43284;47.042;15.498;2023-04-08T05:38:04;97182.75;;;4.00;90.92
57442;BME280;43284;47.042;15.498;2023-04-08T05:40:30;97187.88;;;4.02;90.51
57442;BME280;43284;47.042;15.498;2023-04-08T05:42:56;97191.38;;;3.99;90.03
57442;BME280;43284;47.042;15.498;2023-04-08T05:45:21;97194.78;;;4.01;90.53
57442;BME280;43284;47.042;15.498;2023-04-08T05:47:47;97190.56;;;3.97;89.81
57442;BME280;43284;47.042;15.498;2023-04-08T05:50:12;97194.00;;;3.98;89.80
57442;BME280;43284;47.042;15.498;2023-04-08T05:52:42;97193.09;;;4.00;89.24
57442;BME280;43284;47.042;15.498;2023-04-08T05:55:09;97198.28;;;4.00;88.15
57442;BME280;43284;47.042;15.498;2023-04-08T05:57:34;97204.31;;;3.99;88.35
57442;BME280;43284;47.042;15.498;2023-04-08T06:00:00;97205.97;;;4.03;89.00
57442;BME280;43284;47.042;15.498;2023-04-08T06:02:25;97208.53;;;4.03;89.32
57442;BME280;43284;47.042;15.498;2023-04-08T06:04:51;97208.47;;;4.06;89.55
57442;BME280;43284;47.042;15.498;2023-04-08T06:07:16;97206.03;;;4.00;89.29
57442;BME280;43284;47.042;15.498;2023-04-08T06:09:42;97207.75;;;4.00;90.00
57442;BME280;43284;47.042;15.498;2023-04-08T06:12:07;97206.78;;;4.05;89.64
57442;BME280;43284;47.042;15.498;2023-04-08T06:14:32;97207.81;;;3.98;89.49
57442;BME280;43284;47.042;15.498;2023-04-08T06:16:58;97205.25;;;3.97;89.36
57442;BME280;43284;47.042;15.498;2023-04-08T06:19:23;97211.34;;;3.94;89.47
57442;BME280;43284;47.042;15.498;2023-04-08T06:21:49;97206.38;;;3.85;88.01
57442;BME280;43284;47.042;15.498;2023-04-08T06:24:15;97215.75;;;3.89;88.16
57442;BME280;43284;47.042;15.498;2023-04-08T06:26:41;97219.19;;;3.89;89.31
57442;BME280;43284;47.042;15.498;2023-04-08T06:29:07;97218.47;;;3.83;90.04
57442;BME280;43284;47.042;15.498;2023-04-08T06:31:32;97222.75;;;3.84;90.39
57442;BME280;43284;47.042;15.498;2023-04-08T06:33:58;97226.16;;;3.86;90.85
57442;BME280;43284;47.042;15.498;2023-04-08T06:36:23;97226.13;;;3.87;91.34
57442;BME280;43284;47.042;15.498;2023-04-08T06:38:49;97230.44;;;3.87;91.47
57442;BME280;43284;47.042;15.498;2023-04-08T06:41:15;97235.59;;;3.88;91.87
57442;BME280;43284;47.042;15.498;2023-04-08T06:43:40;97239.16;;;3.83;90.30
57442;BME280;43284;47.042;15.498;2023-04-08T06:46:06;97243.63;;;3.75;89.00
57442;BME280;43284;47.042;15.498;2023-04-08T06:48:31;97247.06;;;3.75;88.85
57442;BME280;43284;47.042;15.498;2023-04-08T06:50:58;97248.69;;;3.79;90.14
57442;BME280;43284;47.042;15.498;2023-04-08T06:53:25;97253.88;;;3.79;89.46
57442;BME280;43284;47.042;15.498;2023-04-08T06:55:51;97250.44;;;3.79;89.41
57442;BME280;43284;47.042;15.498;2023-04-08T06:58:17;97247.88;;;3.77;87.57
57442;BME280;43284;47.042;15.498;2023-04-08T07:00:42;97248.78;;;3.76;87.98
57442;BME280;43284;47.042;15.498;2023-04-08T07:03:08;97253.06;;;3.77;88.02
57442;BME280;43284;47.042;15.498;2023-04-08T07:05:35;97259.06;;;3.78;87.52
57442;BME280;43284;47.042;15.498;2023-04-08T07:08:01;97268.50;;;3.80;88.07
57442;BME280;43284;47.042;15.498;2023-04-08T07:10:27;97267.66;;;3.80;88.13
57442;BME280;43284;47.042;15.498;2023-04-08T07:12:53;97266.91;;;3.73;88.09
57442;BME280;43284;47.042;15.498;2023-04-08T07:15:18;97265.09;;;3.78;89.46
57442;BME280;43284;47.042;15.498;2023-04-08T07:17:44;97270.22;;;3.81;89.74
57442;BME280;43284;47.042;15.498;2023-04-08T07:20:11;97271.94;;;3.81;89.31
57442;BME280;43284;47.042;15.498;2023-04-08T07:22:38;97268.50;;;3.80;89.19
57442;BME280;43284;47.042;15.498;2023-04-08T07:25:04;97278.84;;;3.80;89.38
57442;BME280;43284;47.042;15.498;2023-04-08T07:27:29;97276.25;;;3.80;89.60
57442;BME280;43284;47.042;15.498;2023-04-08T07:29:55;97277.94;;;3.83;89.74
57442;BME280;43284;47.042;15.498;2023-04-08T07:32:21;97281.38;;;3.83;89.56
57442;BME280;43284;47.042;15.498;2023-04-08T07:34:46;97288.22;;;3.86;89.22
57442;BME280;43284;47.042;15.498;2023-04-08T07:37:12;97289.16;;;3.82;88.69
57442;BME280;43284;47.042;15.498;2023-04-08T07:39:37;97287.41;;;3.82;88.98
57442;BME280;43284;47.042;15.498;2023-04-08T07:42:03;97294.56;;;3.69;86.71
57442;BME280;43284;47.042;15.498;2023-04-08T07:44:28;97293.75;;;3.67;86.56
57442;BME280;43284;47.042;15.498;2023-04-08T07:46:53;97293.66;;;3.72;87.50
57442;BME280;43284;47.042;15.498;2023-04-08T07:49:19;97299.69;;;3.72;88.23
57442;BME280;43284;47.042;15.498;2023-04-08T07:51:45;97311.84;;;3.67;88.23
57442;BME280;43284;47.042;15.498;2023-04-08T07:54:11;97307.47;;;3.69;86.58
57442;BME280;43284;47.042;15.498;2023-04-08T07:56:41;97304.88;;;3.69;86.84
57442;BME280;43284;47.042;15.498;2023-04-08T07:59:11;97311.06;;;3.62;86.61
57442;BME280;43284;47.042;15.498;2023-04-08T08:01:37;97318.97;;;3.55;88.49
57442;BME280;43284;47.042;15.498;2023-04-08T08:04:02;97318.88;;;3.59;88.17
57442;BME280;43284;47.042;15.498;2023-04-08T08:06:28;97322.50;;;3.50;87.03
57442;BME280;43284;47.042;15.498;2023-04-08T08:08:57;97328.41;;;3.57;88.31
57442;BME280;43284;47.042;15.498;2023-04-08T08:11:22;97325.06;;;3.52;87.18
57442;BME280;43284;47.042;15.498;2023-04-08T08:13:48;97321.66;;;3.50;87.27
57442;BME280;43284;47.042;15.498;2023-04-08T08:16:13;97325.81;;;3.57;88.98
57442;BME280;43284;47.042;15.498;2023-04-08T08:18:39;97327.69;;;3.49;89.16
57442;BME280;43284;47.042;15.498;2023-04-08T08:21:05;97328.53;;;3.49;89.75
57442;BME280;43284;47.042;15.498;2023-04-08T08:23:31;97331.84;;;3.58;90.04
57442;BME280;43284;47.042;15.498;2023-04-08T08:26:01;97332.56;;;3.64;89.38
57442;BME280;43284;47.042;15.498;2023-04-08T08:28:27;97331.09;;;3.51;87.14
57442;BME280;43284;47.042;15.498;2023-04-08T08:30:52;97333.47;;;3.62;88.25
57442;BME280;43284;47.042;15.498;2023-04-08T08:33:18;97335.91;;;3.71;89.71
57442;BME280;43284;47.042;15.498;2023-04-08T08:35:43;97336.59;;;3.79;89.44
57442;BME280;43284;47.042;15.498;2023-04-08T08:38:09;97338.34;;;3.79;88.13
57442;BME280;43284;47.042;15.498;2023-04-08T08:40:35;97333.91;;;3.85;87.80
57442;BME280;43284;47.042;15.498;2023-04-08T08:43:00;97336.28;;;3.96;87.23
57442;BME280;43284;47.042;15.498;2023-04-08T08:45:26;97342.22;;;4.01;87.26
57442;BME280;43284;47.042;15.498;2023-04-08T08:47:52;97342.16;;;4.04;86.69
57442;BME280;43284;47.042;15.498;2023-04-08T08:50:18;97338.06;;;3.94;84.87
57442;BME280;43284;47.042;15.498;2023-04-08T08:52:50;97345.94;;;3.88;85.83
57442;BME280;43284;47.042;15.498;2023-04-08T08:55:19;97353.00;;;3.78;85.37
57442;BME280;43284;47.042;15.498;2023-04-08T08:57:45;97349.63;;;3.75;85.79
57442;BME280;43284;47.042;15.498;2023-04-08T09:00:11;97339.22;;;3.78;86.93
57442;BME280;43284;47.042;15.498;2023-04-08T09:02:40;97343.41;;;3.85;87.61
57442;BME280;43284;47.042;15.498;2023-04-08T09:05:06;97353.69;;;3.88;88.71
57442;BME280;43284;47.042;15.498;2023-04-08T09:07:35;97355.25;;;3.95;88.88
57442;BME280;43284;47.042;15.498;2023-04-08T09:10:01;97359.63;;;3.93;87.48
57442;BME280;43284;47.042;15.498;2023-04-08T09:12:27;97357.00;;;3.96;86.29
57442;BME280;43284;47.042;15.498;2023-04-08T09:15:07;97363.75;;;4.03;86.78
57442;BME280;43284;47.042;15.498;2023-04-08T09:17:34;97360.50;;;3.92;85.06
57442;BME280;43284;47.042;15.498;2023-04-08T09:20:10;97369.19;;;3.89;86.59
57442;BME280;43284;47.042;15.498;2023-04-08T09:22:59;97362.91;;;4.03;88.54
57442;BME280;43284;47.042;15.498;2023-04-08T09:25:30;97363.75;;;4.03;87.17
57442;BME280;43284;47.042;15.498;2023-04-08T09:27:57;97365.44;;;4.04;86.85
57442;BME280;43284;47.042;15.498;2023-04-08T09:30:26;97366.03;;;4.17;88.09
57442;BME280;43284;47.042;15.498;2023-04-08T09:32:54;97367.84;;;4.13;85.74
57442;BME280;43284;47.042;15.498;2023-04-08T09:35:20;97365.19;;;4.18;86.12
57442;BME280;43284;47.042;15.498;2023-04-08T09:37:46;97372.97;;;4.15;86.25
57442;BME280;43284;47.042;15.498;2023-04-08T09:40:12;97374.72;;;4.15;85.60
57442;BME280;43284;47.042;15.498;2023-04-08T09:42:43;97375.72;;;4.09;87.63
57442;BME280;43284;47.042;15.498;2023-04-08T09:45:10;97375.63;;;4.12;86.80
57442;BME280;43284;47.042;15.498;2023-04-08T09:47:56;97378.88;;;4.22;87.08
57442;BME280;43284;47.042;15.498;2023-04-08T09:50:35;97378.88;;;4.22;85.77
57442;BME280;43284;47.042;15.498;2023-04-08T09:53:12;97376.25;;;4.25;86.20
57442;BME280;43284;47.042;15.498;2023-04-08T09:55:42;97379.56;;;4.31;86.25
57442;BME280;43284;47.042;15.498;2023-04-08T09:58:21;97387.34;;;4.30;85.20
57442;BME280;43284;47.042;15.498;2023-04-08T10:00:53;97382.91;;;4.37;85.67
57442;BME280;43284;47.042;15.498;2023-04-08T10:03:47;97392.31;;;4.41;86.00
57442;BME280;43284;47.042;15.498;2023-04-08T10:06:14;97388.06;;;4.38;85.44
57442;BME280;43284;47.042;15.498;2023-04-08T10:08:41;97380.31;;;4.37;84.70
57442;BME280;43284;47.042;15.498;2023-04-08T10:11:08;97377.72;;;4.38;86.23
57442;BME280;43284;47.042;15.498;2023-04-08T10:13:33;97380.13;;;4.46;85.34
57442;BME280;43284;47.042;15.498;2023-04-08T10:16:20;97373.09;;;4.52;86.70
57442;BME280;43284;47.042;15.498;2023-04-08T10:18:50;97379.25;;;4.47;86.15
57442;BME280;43284;47.042;15.498;2023-04-08T10:21:39;97375.41;;;4.65;86.77
57442;BME280;43284;47.042;15.498;2023-04-08T10:24:12;97376.13;;;4.73;86.43
57442;BME280;43284;47.042;15.498;2023-04-08T10:26:44;97374.47;;;4.69;84.34
57442;BME280;43284;47.042;15.498;2023-04-08T10:31:53;97376.72;;;4.84;85.05
57442;BME280;43284;47.042;15.498;2023-04-08T10:34:24;97379.34;;;4.83;85.02
57442;BME280;43284;47.042;15.498;2023-04-08T10:36:52;97374.69;;;4.99;85.87
57442;BME280;43284;47.042;15.498;2023-04-08T10:39:19;97373.63;;;5.07;85.94
57442;BME280;43284;47.042;15.498;2023-04-08T10:41:46;97377.88;;;5.10;83.52
57442;BME280;43284;47.042;15.498;2023-04-08T10:44:20;97373.31;;;5.20;85.24
57442;BME280;43284;47.042;15.498;2023-04-08T10:46:46;97375.91;;;5.20;84.27
57442;BME280;43284;47.042;15.498;2023-04-08T10:49:13;97379.06;;;4.97;82.43
57442;BME280;43284;47.042;15.498;2023-04-08T10:51:39;97373.31;;;5.20;85.26
57442;BME280;43284;47.042;15.498;2023-04-08T10:54:07;97370.94;;;5.12;83.79
57442;BME280;43284;47.042;15.498;2023-04-08T10:56:35;97377.75;;;5.16;84.31
57442;BME280;43284;47.042;15.498;2023-04-08T10:59:01;97376.81;;;5.19;82.96
57442;BME280;43284;47.042;15.498;2023-04-08T11:01:26;97377.44;;;5.28;81.24
57442;BME280;43284;47.042;15.498;2023-04-08T11:03:53;97375.28;;;5.46;84.47
57442;BME280;43284;47.042;15.498;2023-04-08T11:06:19;97374.66;;;5.36;82.85
57442;BME280;43284;47.042;15.498;2023-04-08T11:08:44;97371.63;;;5.19;81.60
57442;BME280;43284;47.042;15.498;2023-04-08T11:11:10;97374.91;;;5.25;83.84
57442;BME280;43284;47.042;15.498;2023-04-08T11:13:38;97367.53;;;5.44;83.71
57442;BME280;43284;47.042;15.498;2023-04-08T11:16:05;97377.91;;;5.44;82.49
57442;BME280;43284;47.042;15.498;2023-04-08T11:18:41;97377.63;;;5.55;82.72
57442;BME280;43284;47.042;15.498;2023-04-08T11:21:08;97373.59;;;5.45;81.60
57442;BME280;43284;47.042;15.498;2023-04-08T11:23:35;97371.91;;;5.42;80.80
57442;BME280;43284;47.042;15.498;2023-04-08T11:26:00;97376.06;;;5.49;83.05
57442;BME280;43284;47.042;15.498;2023-04-08T11:28:27;97368.06;;;5.57;84.20
57442;BME280;43284;47.042;15.498;2023-04-08T11:30:53;97375.53;;;5.71;84.88
57442;BME280;43284;47.042;15.498;2023-04-08T11:33:19;97373.22;;;5.58;82.89
57442;BME280;43284;47.042;15.498;2023-04-08T11:35:49;97367.81;;;5.68;83.06
57442;BME280;43284;47.042;15.498;2023-04-08T11:38:15;97370.06;;;5.82;83.12
57442;BME280;43284;47.042;15.498;2023-04-08T11:40:51;97363.69;;;5.95;82.86
57442;BME280;43284;47.042;15.498;2023-04-08T11:43:17;97375.59;;;5.68;81.09
57442;BME280;43284;47.042;15.498;2023-04-08T11:45:42;97376.75;;;5.90;82.93
57442;BME280;43284;47.042;15.498;2023-04-08T11:48:12;97373.97;;;5.98;81.45
57442;BME280;43284;47.042;15.498;2023-04-08T11:50:39;97369.34;;;6.09;82.14
57442;BME280;43284;47.042;15.498;2023-04-08T11:53:24;97368.03;;;6.26;80.49
57442;BME280;43284;47.042;15.498;2023-04-08T11:55:50;97366.84;;;6.36;80.20
57442;BME280;43284;47.042;15.498;2023-04-08T11:58:16;97368.97;;;6.53;82.28
57442;BME280;43284;47.042;15.498;2023-04-08T12:00:43;97361.09;;;6.26;78.69
57442;BME280;43284;47.042;15.498;2023-04-08T12:03:09;97367.44;;;6.47;80.92
57442;BME280;43284;47.042;15.498;2023-04-08T12:05:35;97363.34;;;6.68;81.56
57442;BME280;43284;47.042;15.498;2023-04-08T12:08:00;97357.78;;;6.51;79.61
57442;BME280;43284;47.042;15.498;2023-04-08T12:10:26;97361.69;;;6.66;81.26
57442;BME280;43284;47.042;15.498;2023-04-08T12:12:52;97362.66;;;6.62;79.68
57442;BME280;43284;47.042;15.498;2023-04-08T12:15:17;97360.97;;;6.60;79.55
57442;BME280;43284;47.042;15.498;2023-04-08T12:17:43;97352.13;;;6.66;79.24
57442;BME280;43284;47.042;15.498;2023-04-08T12:20:10;97359.13;;;6.64;79.03
57442;BME280;43284;47.042;15.498;2023-04-08T12:22:36;97360.47;;;6.48;79.70
57442;BME280;43284;47.042;15.498;2023-04-08T12:25:02;97359.06;;;6.06;78.73
57442;BME280;43284;47.042;15.498;2023-04-08T12:27:29;97361.81;;;6.00;78.67
57442;BME280;43284;47.042;15.498;2023-04-08T12:29:54;97360.38;;;6.21;78.78
57442;BME280;43284;47.042;15.498;2023-04-08T12:32:20;97357.38;;;6.35;78.34
57442;BME280;43284;47.042;15.498;2023-04-08T12:34:46;97358.03;;;6.43;78.57
57442;BME280;43284;47.042;15.498;2023-04-08T12:37:12;97355.19;;;6.51;78.99
57442;BME280;43284;47.042;15.498;2023-04-08T12:39:37;97356.84;;;6.53;80.88
57442;BME280;43284;47.042;15.498;2023-04-08T12:42:03;97357.66;;;6.55;80.22
57442;BME280;43284;47.042;15.498;2023-04-08T12:44:29;97364.63;;;6.53;81.22
57442;BME280;43284;47.042;15.498;2023-04-08T12:46:55;97356.84;;;6.53;81.52
57442;BME280;43284;47.042;15.498;2023-04-08T12:49:22;97359.72;;;6.44;81.78
57442;BME280;43284;47.042;15.498;2023-04-08T12:51:48;97359.81;;;6.41;81.60
57442;BME280;43284;47.042;15.498;2023-04-08T12:54:13;97360.69;;;6.40;81.58
57442;BME280;43284;47.042;15.498;2023-04-08T12:56:39;97359.97;;;6.35;80.93
57442;BME280;43284;47.042;15.498;2023-04-08T12:59:04;97362.31;;;6.44;82.50
57442;BME280;43284;47.042;15.498;2023-04-08T13:01:30;97359.81;;;6.41;83.07
57442;BME280;43284;47.042;15.498;2023-04-08T13:03:56;97360.84;;;6.34;83.54
57442;BME280;43284;47.042;15.498;2023-04-08T13:06:21;97361.88;;;6.30;84.50